UAL671 KJAX-KMIA
Flight info
| Callsign | UAL671 |
|---|---|
| Flight time | 0h 57m |
| Altitude | 28000 |
| Route | EXBOX2 EXBOX PRMUS DEBRL CSTAL2 |
| Aircraft | B738/M-SDE2E3FGHIRWXY/LB1 |
Departure
| Time | 2026-05-05 19:57 |
|---|---|
| Airport | Jacksonville International Airport (KJAX) |
Arrival
| Time | 2026-05-05 20:54 |
|---|---|
| Airport | Miami International Airport (KMIA) |
| Time | Latitude | Longitude | Altitude | Speed | Heading |
|---|---|---|---|---|---|
| 2026-05-05 19:16 | 30.49072 | -81.68656 | 38 ft | 0 kts | 100° |
| 2026-05-05 19:43 | 30.49073 | -81.68665 | 38 ft | 2 kts | 92° |
| 2026-05-05 19:44 | 30.49074 | -81.68683 | 38 ft | 2 kts | 92° |
| 2026-05-05 19:44 | 30.49076 | -81.68700 | 38 ft | 2 kts | 94° |
| 2026-05-05 19:44 | 30.49078 | -81.68719 | 38 ft | 2 kts | 96° |
| 2026-05-05 19:44 | 30.49079 | -81.68737 | 38 ft | 2 kts | 96° |
| 2026-05-05 19:45 | 30.49079 | -81.68748 | 38 ft | 2 kts | 37° |
| 2026-05-05 19:45 | 30.49071 | -81.68754 | 38 ft | 1 kts | 341° |
| 2026-05-05 19:45 | 30.49059 | -81.68748 | 38 ft | 1 kts | 329° |
| 2026-05-05 19:45 | 30.49057 | -81.68746 | 38 ft | 0 kts | 314° |
| 2026-05-05 19:51 | 30.49064 | -81.68756 | 38 ft | 6 kts | 312° |
| 2026-05-05 19:51 | 30.49090 | -81.68812 | 38 ft | 8 kts | 290° |
| 2026-05-05 19:51 | 30.49102 | -81.68844 | 38 ft | 7 kts | 298° |
| 2026-05-05 19:51 | 30.49157 | -81.68911 | 38 ft | 15 kts | 308° |
| 2026-05-05 19:52 | 30.49146 | -81.68981 | 38 ft | 10 kts | 232° |
| 2026-05-05 19:52 | 30.49090 | -81.69064 | 38 ft | 11 kts | 232° |
| 2026-05-05 19:52 | 30.49038 | -81.69141 | 38 ft | 16 kts | 232° |
| 2026-05-05 19:52 | 30.48992 | -81.69212 | 38 ft | 7 kts | 231° |
| 2026-05-05 19:53 | 30.48935 | -81.69285 | 38 ft | 13 kts | 229° |
| 2026-05-05 19:53 | 30.48906 | -81.69366 | 38 ft | 7 kts | 297° |
| 2026-05-05 19:53 | 30.48968 | -81.69452 | 38 ft | 21 kts | 310° |
| 2026-05-05 19:53 | 30.49061 | -81.69580 | 38 ft | 28 kts | 310° |
| 2026-05-05 19:54 | 30.49174 | -81.69728 | 38 ft | 16 kts | 309° |
| 2026-05-05 19:54 | 30.49247 | -81.69831 | 38 ft | 16 kts | 311° |
| 2026-05-05 19:54 | 30.49294 | -81.69893 | 38 ft | 0 kts | 311° |
| 2026-05-05 19:54 | 30.49312 | -81.69923 | 38 ft | 8 kts | 295° |
| 2026-05-05 19:55 | 30.49296 | -81.69978 | 38 ft | 8 kts | 226° |
| 2026-05-05 19:55 | 30.49265 | -81.70012 | 38 ft | 2 kts | 222° |
| 2026-05-05 19:55 | 30.49262 | -81.70015 | 38 ft | 4 kts | 222° |
| 2026-05-05 19:55 | 30.49220 | -81.70047 | 38 ft | 7 kts | 190° |
| 2026-05-05 19:56 | 30.49144 | -81.69987 | 38 ft | 21 kts | 131° |
| 2026-05-05 19:56 | 30.48981 | -81.69768 | 39 ft | 72 kts | 130° |
| 2026-05-05 19:56 | 30.48391 | -81.68972 | 39 ft | 185 kts | 130° |
| 2026-05-05 19:56 | 30.47311 | -81.67508 | 412 ft | 274 kts | 130° |
| 2026-05-05 19:57 | 30.46112 | -81.65897 | 1032 ft | 269 kts | 131° |
| 2026-05-05 19:57 | 30.45287 | -81.64843 | 1186 ft | 265 kts | 132° |
| 2026-05-05 19:57 | 30.43597 | -81.62757 | 1414 ft | 267 kts | 133° |
| 2026-05-05 19:57 | 30.42322 | -81.61239 | 1654 ft | 260 kts | 134° |
| 2026-05-05 19:58 | 30.41057 | -81.59764 | 1901 ft | 258 kts | 135° |
| 2026-05-05 19:58 | 30.39794 | -81.58318 | 2148 ft | 257 kts | 135° |
| 2026-05-05 19:58 | 30.38531 | -81.56890 | 2698 ft | 248 kts | 135° |
| 2026-05-05 19:58 | 30.37272 | -81.55478 | 2975 ft | 264 kts | 135° |
| 2026-05-05 19:59 | 30.35917 | -81.53968 | 2998 ft | 270 kts | 136° |
| 2026-05-05 19:59 | 30.34560 | -81.52465 | 3000 ft | 270 kts | 136° |
| 2026-05-05 19:59 | 30.33208 | -81.50972 | 3000 ft | 271 kts | 136° |
| 2026-05-05 19:59 | 30.31884 | -81.49514 | 3458 ft | 257 kts | 136° |
| 2026-05-05 20:00 | 30.30572 | -81.48071 | 4080 ft | 263 kts | 136° |
| 2026-05-05 20:00 | 30.29228 | -81.46595 | 4711 ft | 268 kts | 136° |
| 2026-05-05 20:00 | 30.27865 | -81.45098 | 5340 ft | 272 kts | 136° |
| 2026-05-05 20:00 | 30.26501 | -81.43601 | 5959 ft | 276 kts | 136° |
| 2026-05-05 20:01 | 30.25100 | -81.42065 | 6586 ft | 280 kts | 136° |
| 2026-05-05 20:01 | 30.23661 | -81.40488 | 7223 ft | 283 kts | 136° |
| 2026-05-05 20:01 | 30.22239 | -81.38931 | 7847 ft | 286 kts | 136° |
| 2026-05-05 20:01 | 30.20789 | -81.37343 | 8473 ft | 290 kts | 136° |
| 2026-05-05 20:02 | 30.19317 | -81.35732 | 9100 ft | 293 kts | 136° |
| 2026-05-05 20:02 | 30.17824 | -81.34099 | 9728 ft | 296 kts | 136° |
| 2026-05-05 20:02 | 30.16322 | -81.32457 | 10354 ft | 300 kts | 136° |
| 2026-05-05 20:02 | 30.14795 | -81.30788 | 10982 ft | 303 kts | 137° |
| 2026-05-05 20:03 | 30.13256 | -81.29108 | 11608 ft | 307 kts | 137° |
| 2026-05-05 20:03 | 30.11699 | -81.27407 | 12235 ft | 310 kts | 137° |
| 2026-05-05 20:03 | 30.10124 | -81.25688 | 12862 ft | 313 kts | 137° |
| 2026-05-05 20:03 | 30.08531 | -81.23950 | 13490 ft | 317 kts | 137° |
| 2026-05-05 20:04 | 30.06918 | -81.22192 | 14118 ft | 320 kts | 137° |
| 2026-05-05 20:04 | 30.05178 | -81.20652 | 14732 ft | 322 kts | 150° |
| 2026-05-05 20:04 | 30.03155 | -81.19502 | 15199 ft | 327 kts | 160° |
| 2026-05-05 20:04 | 30.00980 | -81.18694 | 15584 ft | 328 kts | 168° |
| 2026-05-05 20:05 | 29.98757 | -81.18149 | 15961 ft | 328 kts | 173° |
| 2026-05-05 20:05 | 29.96489 | -81.17775 | 16340 ft | 329 kts | 176° |
| 2026-05-05 20:05 | 29.94206 | -81.17509 | 16718 ft | 330 kts | 178° |
| 2026-05-05 20:05 | 29.91907 | -81.17290 | 17095 ft | 332 kts | 176° |
| 2026-05-05 20:06 | 29.89642 | -81.16846 | 17467 ft | 336 kts | 169° |
| 2026-05-05 20:06 | 29.87378 | -81.16049 | 17849 ft | 354 kts | 162° |
| 2026-05-05 20:06 | 29.84997 | -81.14862 | 18247 ft | 388 kts | 157° |
| 2026-05-05 20:06 | 29.82411 | -81.13750 | 18637 ft | 406 kts | 166° |
| 2026-05-05 20:07 | 29.79618 | -81.13052 | 19027 ft | 414 kts | 173° |
| 2026-05-05 20:07 | 29.76746 | -81.12653 | 19410 ft | 419 kts | 178° |
| 2026-05-05 20:07 | 29.73829 | -81.12450 | 19790 ft | 423 kts | 180° |
| 2026-05-05 20:07 | 29.70864 | -81.12376 | 20172 ft | 426 kts | 182° |
| 2026-05-05 20:08 | 29.67902 | -81.12382 | 20548 ft | 429 kts | 183° |
| 2026-05-05 20:08 | 29.64933 | -81.12435 | 20922 ft | 432 kts | 184° |
| 2026-05-05 20:08 | 29.61875 | -81.12518 | 21303 ft | 435 kts | 184° |
| 2026-05-05 20:08 | 29.58882 | -81.12612 | 21674 ft | 438 kts | 184° |
| 2026-05-05 20:09 | 29.55827 | -81.12712 | 22051 ft | 441 kts | 184° |
| 2026-05-05 20:09 | 29.52765 | -81.12812 | 22426 ft | 443 kts | 184° |
| 2026-05-05 20:09 | 29.49658 | -81.12910 | 22804 ft | 446 kts | 184° |
| 2026-05-05 20:09 | 29.46561 | -81.13003 | 23178 ft | 448 kts | 184° |
| 2026-05-05 20:10 | 29.43420 | -81.13091 | 23556 ft | 451 kts | 184° |
| 2026-05-05 20:10 | 29.40272 | -81.13175 | 23932 ft | 454 kts | 184° |
| 2026-05-05 20:10 | 29.37118 | -81.13253 | 24307 ft | 456 kts | 184° |
| 2026-05-05 20:10 | 29.33930 | -81.13327 | 24684 ft | 459 kts | 184° |
| 2026-05-05 20:11 | 29.30769 | -81.13158 | 25055 ft | 464 kts | 176° |
| 2026-05-05 20:11 | 29.27555 | -81.12580 | 25437 ft | 469 kts | 171° |
| 2026-05-05 20:11 | 29.24367 | -81.11732 | 25819 ft | 473 kts | 168° |
| 2026-05-05 20:11 | 29.21195 | -81.10709 | 26200 ft | 476 kts | 166° |
| 2026-05-05 20:12 | 29.18030 | -81.09574 | 26581 ft | 479 kts | 165° |
| 2026-05-05 20:12 | 29.14856 | -81.08368 | 26959 ft | 482 kts | 164° |
| 2026-05-05 20:12 | 29.11676 | -81.07121 | 27335 ft | 485 kts | 163° |
| 2026-05-05 20:12 | 29.08481 | -81.05851 | 27711 ft | 487 kts | 163° |
| 2026-05-05 20:13 | 29.05258 | -81.04568 | 27890 ft | 494 kts | 163° |
| 2026-05-05 20:13 | 29.02730 | -81.03565 | 27969 ft | 497 kts | 163° |
| 2026-05-05 20:13 | 28.99684 | -81.02363 | 28003 ft | 499 kts | 163° |
| 2026-05-05 20:13 | 28.95476 | -81.00717 | 28000 ft | 499 kts | 163° |
| 2026-05-05 20:14 | 28.92183 | -80.99442 | 27997 ft | 500 kts | 164° |
| 2026-05-05 20:14 | 28.88882 | -80.98175 | 27996 ft | 500 kts | 164° |
| 2026-05-05 20:14 | 28.85597 | -80.96926 | 27996 ft | 500 kts | 164° |
| 2026-05-05 20:14 | 28.82330 | -80.95693 | 27996 ft | 500 kts | 164° |
| 2026-05-05 20:15 | 28.80102 | -80.94857 | 27996 ft | 500 kts | 164° |
| 2026-05-05 20:15 | 28.76797 | -80.93541 | 27996 ft | 500 kts | 162° |
| 2026-05-05 20:15 | 28.73564 | -80.92158 | 27996 ft | 501 kts | 161° |
| 2026-05-05 20:15 | 28.69265 | -80.90218 | 27996 ft | 501 kts | 160° |
| 2026-05-05 20:16 | 28.66040 | -80.88713 | 27996 ft | 501 kts | 160° |
| 2026-05-05 20:16 | 28.62817 | -80.87181 | 27996 ft | 502 kts | 160° |
| 2026-05-05 20:16 | 28.59601 | -80.85635 | 27996 ft | 502 kts | 159° |
| 2026-05-05 20:16 | 28.57479 | -80.84611 | 27996 ft | 502 kts | 159° |
| 2026-05-05 20:17 | 28.53180 | -80.82530 | 27996 ft | 502 kts | 159° |
| 2026-05-05 20:17 | 28.50912 | -80.81433 | 27996 ft | 502 kts | 159° |
| 2026-05-05 20:17 | 28.47850 | -80.79952 | 27996 ft | 502 kts | 159° |
| 2026-05-05 20:17 | 28.43588 | -80.77900 | 27996 ft | 502 kts | 159° |
| 2026-05-05 20:18 | 28.40368 | -80.76356 | 27996 ft | 502 kts | 160° |
| 2026-05-05 20:18 | 28.37154 | -80.74824 | 27996 ft | 502 kts | 160° |
| 2026-05-05 20:18 | 28.33939 | -80.73298 | 27996 ft | 502 kts | 160° |
| 2026-05-05 20:18 | 28.31805 | -80.72288 | 27996 ft | 501 kts | 160° |
| 2026-05-05 20:19 | 28.27502 | -80.70256 | 27996 ft | 501 kts | 160° |
| 2026-05-05 20:19 | 28.25374 | -80.69253 | 27996 ft | 501 kts | 160° |
| 2026-05-05 20:19 | 28.22112 | -80.67817 | 27996 ft | 500 kts | 162° |
| 2026-05-05 20:19 | 28.17753 | -80.66169 | 27996 ft | 499 kts | 165° |
| 2026-05-05 20:20 | 28.15538 | -80.65410 | 27996 ft | 499 kts | 166° |
| 2026-05-05 20:20 | 28.11090 | -80.63988 | 27996 ft | 499 kts | 167° |
| 2026-05-05 20:20 | 28.08849 | -80.63305 | 27996 ft | 499 kts | 167° |
| 2026-05-05 20:20 | 28.05497 | -80.62310 | 27996 ft | 498 kts | 168° |
| 2026-05-05 20:21 | 28.02157 | -80.61337 | 27996 ft | 498 kts | 168° |
| 2026-05-05 20:21 | 27.98776 | -80.60362 | 27996 ft | 498 kts | 168° |
| 2026-05-05 20:21 | 27.95426 | -80.59398 | 27996 ft | 498 kts | 168° |
| 2026-05-05 20:21 | 27.92056 | -80.58427 | 27996 ft | 498 kts | 168° |
| 2026-05-05 20:22 | 27.88700 | -80.57457 | 27996 ft | 498 kts | 168° |
| 2026-05-05 20:22 | 27.85344 | -80.56483 | 27996 ft | 498 kts | 168° |
| 2026-05-05 20:22 | 27.81984 | -80.55502 | 27996 ft | 498 kts | 168° |
| 2026-05-05 20:22 | 27.78625 | -80.54517 | 27996 ft | 498 kts | 168° |
| 2026-05-05 20:23 | 27.75315 | -80.53541 | 27996 ft | 498 kts | 168° |
| 2026-05-05 20:23 | 27.71920 | -80.52536 | 27996 ft | 498 kts | 168° |
| 2026-05-05 20:23 | 27.68622 | -80.51543 | 27996 ft | 499 kts | 167° |
| 2026-05-05 20:23 | 27.65284 | -80.50438 | 27996 ft | 499 kts | 165° |
| 2026-05-05 20:24 | 27.61968 | -80.49253 | 27996 ft | 500 kts | 164° |
| 2026-05-05 20:24 | 27.58664 | -80.48011 | 27996 ft | 500 kts | 163° |
| 2026-05-05 20:24 | 27.55386 | -80.46738 | 27996 ft | 500 kts | 163° |
| 2026-05-05 20:24 | 27.52095 | -80.45435 | 27996 ft | 500 kts | 163° |
| 2026-05-05 20:25 | 27.48854 | -80.44137 | 27996 ft | 500 kts | 163° |
| 2026-05-05 20:25 | 27.45581 | -80.42819 | 27996 ft | 500 kts | 163° |
| 2026-05-05 20:25 | 27.42302 | -80.41495 | 27996 ft | 500 kts | 163° |
| 2026-05-05 20:25 | 27.39028 | -80.40175 | 27996 ft | 500 kts | 163° |
| 2026-05-05 20:26 | 27.35750 | -80.38855 | 27996 ft | 500 kts | 163° |
| 2026-05-05 20:26 | 27.32473 | -80.37541 | 27996 ft | 500 kts | 163° |
| 2026-05-05 20:26 | 27.29184 | -80.36227 | 27996 ft | 500 kts | 163° |
| 2026-05-05 20:26 | 27.25910 | -80.34924 | 27996 ft | 500 kts | 163° |
| 2026-05-05 20:27 | 27.22664 | -80.33641 | 27996 ft | 500 kts | 163° |
| 2026-05-05 20:27 | 27.19382 | -80.32353 | 27996 ft | 500 kts | 163° |
| 2026-05-05 20:27 | 27.16097 | -80.31071 | 27996 ft | 500 kts | 163° |
| 2026-05-05 20:27 | 27.12813 | -80.29795 | 27996 ft | 500 kts | 163° |
| 2026-05-05 20:28 | 27.09515 | -80.28515 | 27996 ft | 500 kts | 163° |
| 2026-05-05 20:28 | 27.06236 | -80.27246 | 27970 ft | 501 kts | 163° |
| 2026-05-05 20:28 | 27.02940 | -80.25971 | 27769 ft | 502 kts | 163° |
| 2026-05-05 20:28 | 26.99630 | -80.24692 | 27443 ft | 502 kts | 163° |
| 2026-05-05 20:29 | 26.96334 | -80.23418 | 27076 ft | 500 kts | 163° |
| 2026-05-05 20:29 | 26.93074 | -80.22157 | 26703 ft | 491 kts | 163° |
| 2026-05-05 20:29 | 26.89956 | -80.20947 | 26329 ft | 469 kts | 163° |
| 2026-05-05 20:29 | 26.86893 | -80.19766 | 25940 ft | 443 kts | 164° |
| 2026-05-05 20:30 | 26.84121 | -80.18706 | 25563 ft | 415 kts | 164° |
| 2026-05-05 20:30 | 26.81478 | -80.17706 | 25167 ft | 389 kts | 164° |
| 2026-05-05 20:30 | 26.78973 | -80.16770 | 24693 ft | 371 kts | 165° |
| 2026-05-05 20:30 | 26.76695 | -80.15921 | 24158 ft | 316 kts | 165° |
| 2026-05-05 20:31 | 26.74703 | -80.15188 | 23639 ft | 299 kts | 166° |
| 2026-05-05 20:31 | 26.72733 | -80.14515 | 23130 ft | 293 kts | 168° |
| 2026-05-05 20:31 | 26.70791 | -80.13900 | 22627 ft | 288 kts | 169° |
| 2026-05-05 20:31 | 26.68872 | -80.13328 | 22125 ft | 284 kts | 169° |
| 2026-05-05 20:32 | 26.66981 | -80.12789 | 21626 ft | 280 kts | 170° |
| 2026-05-05 20:32 | 26.65073 | -80.12262 | 21116 ft | 276 kts | 170° |
| 2026-05-05 20:32 | 26.63246 | -80.11766 | 20622 ft | 273 kts | 171° |
| 2026-05-05 20:32 | 26.61411 | -80.11279 | 20182 ft | 268 kts | 171° |
| 2026-05-05 20:33 | 26.59621 | -80.10814 | 20074 ft | 261 kts | 171° |
| 2026-05-05 20:33 | 26.57805 | -80.10350 | 20007 ft | 260 kts | 172° |
| 2026-05-05 20:33 | 26.56122 | -80.09925 | 19995 ft | 259 kts | 172° |
| 2026-05-05 20:33 | 26.54367 | -80.09486 | 19961 ft | 261 kts | 172° |
| 2026-05-05 20:34 | 26.52553 | -80.09037 | 19459 ft | 269 kts | 172° |
| 2026-05-05 20:34 | 26.50731 | -80.08583 | 18846 ft | 267 kts | 171° |
| 2026-05-05 20:34 | 26.48936 | -80.08134 | 18223 ft | 264 kts | 171° |
| 2026-05-05 20:34 | 26.47168 | -80.07744 | 17601 ft | 259 kts | 179° |
| 2026-05-05 20:35 | 26.45433 | -80.08024 | 16963 ft | 245 kts | 208° |
| 2026-05-05 20:35 | 26.44193 | -80.09044 | 16377 ft | 234 kts | 235° |
| 2026-05-05 20:35 | 26.43328 | -80.10651 | 15735 ft | 229 kts | 248° |
| 2026-05-05 20:35 | 26.42725 | -80.12290 | 15113 ft | 228 kts | 252° |
| 2026-05-05 20:36 | 26.42197 | -80.13930 | 14684 ft | 221 kts | 253° |
| 2026-05-05 20:36 | 26.41695 | -80.15558 | 14396 ft | 223 kts | 253° |
| 2026-05-05 20:36 | 26.41154 | -80.17185 | 14094 ft | 224 kts | 246° |
| 2026-05-05 20:36 | 26.40372 | -80.18697 | 13799 ft | 225 kts | 240° |
| 2026-05-05 20:37 | 26.39498 | -80.20126 | 13503 ft | 226 kts | 238° |
| 2026-05-05 20:37 | 26.38528 | -80.21525 | 13194 ft | 228 kts | 225° |
| 2026-05-05 20:37 | 26.37222 | -80.22493 | 12909 ft | 230 kts | 210° |
| 2026-05-05 20:37 | 26.35758 | -80.23216 | 12614 ft | 231 kts | 205° |
| 2026-05-05 20:38 | 26.34255 | -80.23860 | 12314 ft | 231 kts | 203° |
| 2026-05-05 20:38 | 26.32751 | -80.24493 | 12012 ft | 230 kts | 207° |
| 2026-05-05 20:38 | 26.31420 | -80.25424 | 11717 ft | 225 kts | 221° |
| 2026-05-05 20:38 | 26.30227 | -80.26557 | 11419 ft | 224 kts | 225° |
| 2026-05-05 20:39 | 26.29103 | -80.27724 | 11124 ft | 223 kts | 226° |
| 2026-05-05 20:39 | 26.27980 | -80.28921 | 10823 ft | 223 kts | 226° |
| 2026-05-05 20:39 | 26.26869 | -80.30117 | 10523 ft | 222 kts | 227° |
| 2026-05-05 20:39 | 26.25761 | -80.31316 | 10223 ft | 221 kts | 227° |
| 2026-05-05 20:40 | 26.24662 | -80.32508 | 9923 ft | 221 kts | 227° |
| 2026-05-05 20:40 | 26.23568 | -80.33699 | 9623 ft | 220 kts | 227° |
| 2026-05-05 20:40 | 26.22474 | -80.34891 | 9322 ft | 219 kts | 227° |
| 2026-05-05 20:40 | 26.21388 | -80.36079 | 9022 ft | 218 kts | 227° |
| 2026-05-05 20:41 | 26.20322 | -80.37247 | 8810 ft | 213 kts | 227° |
| 2026-05-05 20:41 | 26.19264 | -80.38408 | 8552 ft | 214 kts | 227° |
| 2026-05-05 20:41 | 26.18205 | -80.39575 | 8252 ft | 214 kts | 227° |
| 2026-05-05 20:41 | 26.17154 | -80.40735 | 7952 ft | 213 kts | 227° |
| 2026-05-05 20:42 | 26.16115 | -80.41885 | 7655 ft | 212 kts | 227° |
| 2026-05-05 20:42 | 26.15072 | -80.43044 | 7355 ft | 212 kts | 227° |
| 2026-05-05 20:42 | 26.14035 | -80.44198 | 7056 ft | 211 kts | 227° |
| 2026-05-05 20:42 | 26.12941 | -80.45261 | 6735 ft | 212 kts | 213° |
| 2026-05-05 20:43 | 26.11533 | -80.45770 | 6469 ft | 215 kts | 192° |
| 2026-05-05 20:43 | 26.10060 | -80.46007 | 6175 ft | 214 kts | 188° |
| 2026-05-05 20:43 | 26.08500 | -80.46227 | 5856 ft | 212 kts | 188° |
| 2026-05-05 20:43 | 26.07136 | -80.46460 | 5574 ft | 211 kts | 190° |
| 2026-05-05 20:44 | 26.05702 | -80.46754 | 5274 ft | 209 kts | 192° |
| 2026-05-05 20:44 | 26.04283 | -80.47089 | 4974 ft | 208 kts | 193° |
| 2026-05-05 20:44 | 26.02868 | -80.47455 | 4670 ft | 205 kts | 194° |
| 2026-05-05 20:44 | 26.01516 | -80.47824 | 4370 ft | 201 kts | 194° |
| 2026-05-05 20:45 | 25.98867 | -80.48581 | 3772 ft | 192 kts | 195° |
| 2026-05-05 20:45 | 25.97586 | -80.48955 | 3470 ft | 190 kts | 195° |
| 2026-05-05 20:45 | 25.96319 | -80.49329 | 3187 ft | 186 kts | 195° |
| 2026-05-05 20:46 | 25.95085 | -80.49694 | 3076 ft | 182 kts | 195° |
| 2026-05-05 20:46 | 25.93860 | -80.50057 | 3012 ft | 182 kts | 195° |
| 2026-05-05 20:46 | 25.92648 | -80.50416 | 3001 ft | 179 kts | 195° |
| 2026-05-05 20:46 | 25.91460 | -80.50769 | 3005 ft | 174 kts | 195° |
| 2026-05-05 20:47 | 25.90301 | -80.51113 | 2995 ft | 171 kts | 195° |
| 2026-05-05 20:47 | 25.89163 | -80.51451 | 2996 ft | 169 kts | 195° |
| 2026-05-05 20:47 | 25.88023 | -80.51790 | 3000 ft | 169 kts | 195° |
| 2026-05-05 20:47 | 25.86876 | -80.52131 | 3024 ft | 174 kts | 195° |
| 2026-05-05 20:48 | 25.85721 | -80.52473 | 2996 ft | 171 kts | 195° |
| 2026-05-05 20:48 | 25.84580 | -80.52812 | 2996 ft | 169 kts | 195° |
| 2026-05-05 20:48 | 25.83449 | -80.53148 | 2998 ft | 167 kts | 195° |
| 2026-05-05 20:48 | 25.82331 | -80.53479 | 2999 ft | 167 kts | 195° |
| 2026-05-05 20:49 | 25.81208 | -80.53809 | 2998 ft | 166 kts | 195° |
| 2026-05-05 20:49 | 25.80066 | -80.53725 | 2956 ft | 170 kts | 160° |
| 2026-05-05 20:49 | 25.79201 | -80.52827 | 2921 ft | 177 kts | 121° |
| 2026-05-05 20:49 | 25.78952 | -80.51518 | 2849 ft | 176 kts | 92° |
| 2026-05-05 20:50 | 25.79018 | -80.50168 | 2739 ft | 174 kts | 84° |
| 2026-05-05 20:50 | 25.79141 | -80.48852 | 2609 ft | 171 kts | 83° |
| 2026-05-05 20:50 | 25.79256 | -80.47536 | 2477 ft | 169 kts | 84° |
| 2026-05-05 20:50 | 25.79348 | -80.46265 | 2346 ft | 165 kts | 85° |
| 2026-05-05 20:51 | 25.79424 | -80.45003 | 2189 ft | 165 kts | 85° |
| 2026-05-05 20:51 | 25.79490 | -80.43733 | 1901 ft | 163 kts | 86° |
| 2026-05-05 20:51 | 25.79548 | -80.42504 | 1611 ft | 161 kts | 86° |
| 2026-05-05 20:51 | 25.79603 | -80.41283 | 1300 ft | 156 kts | 86° |
| 2026-05-05 20:52 | 25.79655 | -80.40080 | 1051 ft | 151 kts | 87° |
| 2026-05-05 20:52 | 25.79703 | -80.38941 | 929 ft | 149 kts | 87° |
| 2026-05-05 20:52 | 25.79751 | -80.37801 | 835 ft | 150 kts | 87° |
| 2026-05-05 20:52 | 25.79800 | -80.36647 | 749 ft | 151 kts | 87° |
| 2026-05-05 20:53 | 25.79848 | -80.35489 | 671 ft | 151 kts | 87° |
| 2026-05-05 20:53 | 25.79898 | -80.34298 | 514 ft | 153 kts | 87° |
| 2026-05-05 20:53 | 25.79946 | -80.33133 | 375 ft | 153 kts | 87° |
| 2026-05-05 20:53 | 25.79995 | -80.31948 | 235 ft | 152 kts | 87° |
| 2026-05-05 20:54 | 25.80043 | -80.30793 | 155 ft | 150 kts | 87° |
| 2026-05-05 20:54 | 25.80089 | -80.29674 | 28 ft | 133 kts | 87° |
| 2026-05-05 20:54 | 25.80121 | -80.28898 | 19 ft | 60 kts | 87° |
| 2026-05-05 20:54 | 25.80131 | -80.28675 | 19 ft | 9 kts | 87° |
| 2026-05-05 20:55 | 25.80133 | -80.28603 | 19 ft | 8 kts | 89° |
| 2026-05-05 20:55 | 25.80118 | -80.28554 | 19 ft | 5 kts | 134° |
| 2026-05-05 20:55 | 25.80094 | -80.28540 | 19 ft | 2 kts | 163° |
| 2026-05-05 20:55 | 25.80089 | -80.28538 | 19 ft | 0 kts | 166° |
| 2026-05-05 20:56 | 25.80088 | -80.28538 | 19 ft | 0 kts | 166° |
| 2026-05-05 20:56 | 25.80083 | -80.28537 | 19 ft | 1 kts | 166° |
| 2026-05-05 20:57 | 25.80076 | -80.28535 | 19 ft | 1 kts | 169° |
| 2026-05-05 20:57 | 25.80066 | -80.28533 | 19 ft | 2 kts | 173° |
| 2026-05-05 20:57 | 25.80053 | -80.28532 | 19 ft | 2 kts | 175° |
| 2026-05-05 20:57 | 25.80037 | -80.28531 | 19 ft | 2 kts | 177° |
| 2026-05-05 20:58 | 25.80018 | -80.28530 | 19 ft | 3 kts | 179° |
| 2026-05-05 20:58 | 25.80001 | -80.28530 | 19 ft | 0 kts | 179° |
| 2026-05-05 20:58 | 25.79996 | -80.28530 | 19 ft | 1 kts | 178° |
| 2026-05-05 20:59 | 25.79989 | -80.28530 | 19 ft | 1 kts | 178° |
| 2026-05-05 20:59 | 25.79979 | -80.28528 | 19 ft | 1 kts | 171° |
| 2026-05-05 20:59 | 25.79969 | -80.28524 | 19 ft | 1 kts | 154° |
| 2026-05-05 20:59 | 25.79963 | -80.28519 | 19 ft | 1 kts | 139° |
| 2026-05-05 21:00 | 25.79956 | -80.28508 | 19 ft | 2 kts | 120° |
| 2026-05-05 21:00 | 25.79952 | -80.28494 | 19 ft | 1 kts | 102° |
| 2026-05-05 21:00 | 25.79951 | -80.28487 | 19 ft | 2 kts | 99° |
| 2026-05-05 21:00 | 25.79948 | -80.28460 | 19 ft | 5 kts | 101° |
| 2026-05-05 21:01 | 25.79924 | -80.28432 | 19 ft | 6 kts | 154° |
| 2026-05-05 21:01 | 25.79887 | -80.28425 | 19 ft | 3 kts | 176° |
| 2026-05-05 21:01 | 25.79883 | -80.28425 | 19 ft | 0 kts | 177° |
| 2026-05-05 21:01 | 25.79870 | -80.28424 | 19 ft | 6 kts | 177° |
| 2026-05-05 21:02 | 25.79853 | -80.28423 | 19 ft | 5 kts | 178° |
| 2026-05-05 21:02 | 25.79838 | -80.28423 | 19 ft | 0 kts | 178° |
| 2026-05-05 21:03 | 25.79835 | -80.28423 | 19 ft | 0 kts | 179° |